Time;durP1;ratioP1;P1;durP2;ratioP2;P2;SDS_P1;SDS_P2;PMS_P1;PMS_P2;Temp;Humidity;BMP_temperature;BMP_pressure;BME280_temperature;BME280_humidity;BME280_pressure;Samples;Min_cycle;Max_cycle;Signal;HPM_P1;HPM_P2
2021/12/12 00:02:07;;;;;;;6.4;4.6;;;;;;;;;;;;;
2021/12/12 00:04:32;;;;;;;6;4.1;;;;;;;;;;;;;
2021/12/12 00:06:55;;;;;;;5.2;3.7;;;;;;;;;;;;;
2021/12/12 00:09:20;;;;;;;4.1;3.2;;;;;;;;;;;;;
2021/12/12 00:11:45;;;;;;;4.9;3.4;;;;;;;;;;;;;
2021/12/12 00:14:11;;;;;;;5.8;3.2;;;;;;;;;;;;;
2021/12/12 00:16:36;;;;;;;5.1;3.2;;;;;;;;;;;;;
2021/12/12 00:19:03;;;;;;;6.5;3.9;;;;;;;;;;;;;
2021/12/12 00:21:28;;;;;;;6.4;3.6;;;;;;;;;;;;;
2021/12/12 00:23:54;;;;;;;5;3.6;;;;;;;;;;;;;
2021/12/12 00:26:19;;;;;;;6.7;4.4;;;;;;;;;;;;;
2021/12/12 00:28:45;;;;;;;5.1;3.9;;;;;;;;;;;;;
2021/12/12 00:31:10;;;;;;;5.9;3.6;;;;;;;;;;;;;
2021/12/12 00:33:35;;;;;;;5.4;3.8;;;;;;;;;;;;;
2021/12/12 00:36:00;;;;;;;4.2;3.6;;;;;;;;;;;;;
2021/12/12 00:38:28;;;;;;;5.9;3.4;;;;;;;;;;;;;
2021/12/12 00:40:52;;;;;;;7;4.9;;;;;;;;;;;;;
2021/12/12 00:43:18;;;;;;;3.8;3.3;;;;;;;;;;;;;
2021/12/12 00:45:43;;;;;;;5.6;3.3;;;;;;;;;;;;;
2021/12/12 00:48:08;;;;;;;5.7;3.3;;;;;;;;;;;;;
2021/12/12 00:50:33;;;;;;;7.8;4;;;;;;;;;;;;;
2021/12/12 00:52:58;;;;;;;6.7;3.6;;;;;;;;;;;;;
2021/12/12 00:55:24;;;;;;;5.1;4;;;;;;;;;;;;;
2021/12/12 00:57:52;;;;;;;4.5;4.1;;;;;;;;;;;;;
2021/12/12 01:00:14;;;;;;;4.7;3.5;;;;;;;;;;;;;
2021/12/12 01:02:39;;;;;;;4.7;3.2;;;;;;;;;;;;;
2021/12/12 01:05:04;;;;;;;5.4;3.4;;;;;;;;;;;;;
2021/12/12 01:07:30;;;;;;;4.7;3.3;;;;;;;;;;;;;
2021/12/12 01:09:55;;;;;;;6.5;3.4;;;;;;;;;;;;;
2021/12/12 01:12:20;;;;;;;4.8;3.1;;;;;;;;;;;;;
2021/12/12 01:14:45;;;;;;;4.7;3;;;;;;;;;;;;;
2021/12/12 01:17:14;;;;;;;5.2;2.9;;;;;;;;;;;;;
2021/12/12 01:19:39;;;;;;;3.7;2.5;;;;;;;;;;;;;
2021/12/12 01:22:04;;;;;;;4.1;2.5;;;;;;;;;;;;;
2021/12/12 01:24:29;;;;;;;4.6;3.1;;;;;;;;;;;;;
2021/12/12 01:26:54;;;;;;;4.2;2.8;;;;;;;;;;;;;
2021/12/12 01:29:19;;;;;;;3.7;2.7;;;;;;;;;;;;;
2021/12/12 01:31:48;;;;;;;3.1;2.7;;;;;;;;;;;;;
2021/12/12 01:34:13;;;;;;;4.6;2.8;;;;;;;;;;;;;
2021/12/12 01:36:47;;;;;;;3.1;2.5;;;;;;;;;;;;;
2021/12/12 01:39:04;;;;;;;2.7;2.3;;;;;;;;;;;;;
2021/12/12 01:41:29;;;;;;;2.9;2.3;;;;;;;;;;;;;
2021/12/12 01:43:55;;;;;;;3.8;2.5;;;;;;;;;;;;;
2021/12/12 01:46:20;;;;;;;3.4;2.5;;;;;;;;;;;;;
2021/12/12 01:48:45;;;;;;;3.5;2.4;;;;;;;;;;;;;
2021/12/12 01:51:19;;;;;;;2.7;2.1;;;;;;;;;;;;;
2021/12/12 01:53:45;;;;;;;3;2.4;;;;;;;;;;;;;
2021/12/12 01:56:11;;;;;;;3.2;2.3;;;;;;;;;;;;;
2021/12/12 01:58:37;;;;;;;3.6;2.7;;;;;;;;;;;;;
2021/12/12 02:01:04;;;;;;;2.6;2.4;;;;;;;;;;;;;
2021/12/12 02:03:29;;;;;;;4.6;3.1;;;;;;;;;;;;;
2021/12/12 02:05:54;;;;;;;4.8;3;;;;;;;;;;;;;
2021/12/12 02:08:19;;;;;;;4.2;3;;;;;;;;;;;;;
2021/12/12 02:10:45;;;;;;;5;3.3;;;;;;;;;;;;;
2021/12/12 02:13:10;;;;;;;6.1;3.3;;;;;;;;;;;;;
2021/12/12 02:15:38;;;;;;;4.9;3.1;;;;;;;;;;;;;
2021/12/12 02:18:04;;;;;;;5.4;3.3;;;;;;;;;;;;;
2021/12/12 02:20:34;;;;;;;5.2;3.7;;;;;;;;;;;;;
2021/12/12 02:23:03;;;;;;;7;4;;;;;;;;;;;;;
2021/12/12 02:35:16;;;;;;;3.8;2.8;;;;;;;;;;;;;
2021/12/12 02:37:25;;;;;;;3.5;2.5;;;;;;;;;;;;;
2021/12/12 02:39:50;;;;;;;7.4;4;;;;;;;;;;;;;
2021/12/12 02:42:17;;;;;;;5.4;3.2;;;;;;;;;;;;;
2021/12/12 02:44:42;;;;;;;6.3;3.5;;;;;;;;;;;;;
2021/12/12 02:47:11;;;;;;;3.6;2.8;;;;;;;;;;;;;
2021/12/12 02:49:40;;;;;;;5.4;3.2;;;;;;;;;;;;;
2021/12/12 02:51:57;;;;;;;6.2;3.4;;;;;;;;;;;;;
2021/12/12 02:54:22;;;;;;;3.8;2.6;;;;;;;;;;;;;
2021/12/12 02:56:47;;;;;;;2.1;1.9;;;;;;;;;;;;;
2021/12/12 02:59:12;;;;;;;2.7;2;;;;;;;;;;;;;
2021/12/12 03:01:38;;;;;;;1.9;1.6;;;;;;;;;;;;;
2021/12/12 03:04:10;;;;;;;2.5;2;;;;;;;;;;;;;
2021/12/12 03:06:29;;;;;;;2.7;1.9;;;;;;;;;;;;;
2021/12/12 03:08:54;;;;;;;3.1;2.1;;;;;;;;;;;;;
2021/12/12 03:11:19;;;;;;;3;2.5;;;;;;;;;;;;;
2021/12/12 03:13:52;;;;;;;3.8;2.3;;;;;;;;;;;;;
2021/12/12 03:16:22;;;;;;;3;2.3;;;;;;;;;;;;;
2021/12/12 03:18:47;;;;;;;4.9;2.4;;;;;;;;;;;;;
2021/12/12 03:21:19;;;;;;;3.1;2.2;;;;;;;;;;;;;
2021/12/12 03:23:46;;;;;;;2.8;2.1;;;;;;;;;;;;;
2021/12/12 03:26:11;;;;;;;3.1;2.1;;;;;;;;;;;;;
2021/12/12 03:28:37;;;;;;;2.3;2.1;;;;;;;;;;;;;
2021/12/12 03:31:02;;;;;;;2.3;2.1;;;;;;;;;;;;;
2021/12/12 03:33:27;;;;;;;3.4;2.5;;;;;;;;;;;;;
2021/12/12 03:35:54;;;;;;;4;2.9;;;;;;;;;;;;;
2021/12/12 03:38:19;;;;;;;4.7;3.1;;;;;;;;;;;;;
2021/12/12 03:40:47;;;;;;;3.8;2.4;;;;;;;;;;;;;
2021/12/12 03:43:12;;;;;;;3.7;2.3;;;;;;;;;;;;;
2021/12/12 03:45:37;;;;;;;2.6;2.1;;;;;;;;;;;;;
2021/12/12 03:48:02;;;;;;;2.8;2;;;;;;;;;;;;;
2021/12/12 03:50:28;;;;;;;2.5;1.9;;;;;;;;;;;;;
2021/12/12 03:52:53;;;;;;;2.4;1.8;;;;;;;;;;;;;
2021/12/12 03:55:29;;;;;;;2.4;1.8;;;;;;;;;;;;;
2021/12/12 03:57:49;;;;;;;2.4;1.7;;;;;;;;;;;;;
2021/12/12 04:02:34;;;;;;;2.2;1.8;;;;;;;0.41;92.08789;945.4512;;;;
2021/12/12 04:05:08;;;;;;;2.1;1.7;;;;;;;0.5;91.89844;945.4462;;;;
2021/12/12 04:07:37;;;;;;;2.4;1.9;;;;;;;0.68;90.65234;945.4885;;;;
2021/12/12 04:10:02;;;;;;;2.4;1.9;;;;;;;0.75;90.06738;945.5399;;;;
2021/12/12 04:12:27;;;;;;;1.9;1.6;;;;;;;0.66;90.40332;945.5396;;;;
2021/12/12 04:14:55;;;;;;;2;1.6;;;;;;;0.67;90.0166;945.5374;;;;
2021/12/12 04:17:26;;;;;;;1.8;1.6;;;;;;;0.45;90.38086;945.5635;;;;
2021/12/12 04:19:51;;;;;;;1.6;1.5;;;;;;;0.39;90.99219;945.6032;;;;
2021/12/12 04:22:17;;;;;;;2.3;1.4;;;;;;;0.23;91.2373;945.5109;;;;
2021/12/12 04:24:48;;;;;;;1.6;1.3;;;;;;;-0.02;92.35449;945.5458;;;;
2021/12/12 04:27:13;;;;;;;1.9;1.5;;;;;;;-0.12;92.85547;945.5622;;;;
2021/12/12 04:29:41;;;;;;;2.4;1.7;;;;;;;-0.1;92.68848;945.551;;;;
2021/12/12 04:32:06;;;;;;;3.1;1.9;;;;;;;-0.09;92.83984;945.5491;;;;
2021/12/12 04:34:31;;;;;;;2.6;1.9;;;;;;;-0.05;92.66895;945.5405;;;;
2021/12/12 04:37:09;;;;;;;2.7;1.8;;;;;;;-0.11;92.59961;945.57;;;;
2021/12/12 04:39:36;;;;;;;2.3;2.1;;;;;;;-0.02;91.42969;945.6749;;;;
2021/12/12 04:42:00;;;;;;;2.8;2;;;;;;;-0.01;91.47461;945.6188;;;;
2021/12/12 04:44:27;;;;;;;3.8;2.3;;;;;;;0.05;90.94238;945.6644;;;;
2021/12/12 04:51:42;;;;;;;3.7;2.4;;;;;;;0.05;88.99219;945.7442;;;;
2021/12/12 04:54:10;;;;;;;3;2.1;;;;;;;-0.07;89.17969;945.7004;;;;
2021/12/12 04:56:35;;;;;;;3.5;2;;;;;;;-0.04;88.94043;945.7512;;;;
2021/12/12 04:59:00;;;;;;;2.1;1.9;;;;;;;-0.17;89.40332;945.7484;;;;
2021/12/12 05:01:28;;;;;;;4.6;2.1;;;;;;;-0.42;90.49609;945.7858;;;;
2021/12/12 05:03:54;;;;;;;3.5;2.5;;;;;;;-0.53;90.97559;945.8574;;;;
2021/12/12 05:06:20;;;;;;;3.2;2.3;;;;;;;-0.66;91.74707;945.9628;;;;
2021/12/12 05:08:46;;;;;;;4.5;2.5;;;;;;;-0.73;92.97656;946.0012;;;;
2021/12/12 05:11:11;;;;;;;3.8;2.3;;;;;;;-0.75;93.2373;946.0118;;;;
2021/12/12 05:13:38;;;;;;;3.9;2.6;;;;;;;-0.62;92.73145;946.0005;;;;
2021/12/12 05:16:26;;;;;;;5.2;2.8;;;;;;;-0.58;92.29688;945.9648;;;;
2021/12/12 05:18:52;;;;;;;4.7;2.4;;;;;;;-0.48;90.65137;945.9731;;;;
2021/12/12 05:21:17;;;;;;;4.5;2.6;;;;;;;-0.65;90.69238;945.9144;;;;
2021/12/12 05:23:42;;;;;;;3.1;2.3;;;;;;;-0.73;91.16406;946.0897;;;;
2021/12/12 05:26:07;;;;;;;3.6;1.9;;;;;;;-0.65;90.72559;946.1068;;;;
2021/12/12 05:28:32;;;;;;;3.2;2.5;;;;;;;-0.66;90.32129;946.1261;;;;
2021/12/12 05:30:57;;;;;;;6.5;3.1;;;;;;;-0.68;90.4082;946.1689;;;;
2021/12/12 05:33:22;;;;;;;2.8;2.2;;;;;;;-0.82;91.13086;946.1914;;;;
2021/12/12 05:35:47;;;;;;;3.7;2.5;;;;;;;-1;91.91406;946.2881;;;;
2021/12/12 05:38:12;;;;;;;4.7;2.8;;;;;;;-1.02;92.52148;946.3056;;;;
2021/12/12 05:40:39;;;;;;;6.2;3.3;;;;;;;-1.04;92.33984;946.2808;;;;
2021/12/12 05:43:04;;;;;;;5.4;3.5;;;;;;;-1.03;92.16406;946.2883;;;;
2021/12/12 05:45:29;;;;;;;5.4;3.3;;;;;;;-0.94;92.11914;946.3553;;;;
2021/12/12 05:47:55;;;;;;;5.1;2.7;;;;;;;-0.99;91.7627;946.2891;;;;
2021/12/12 05:50:20;;;;;;;3.2;2;;;;;;;-1.01;91.70313;946.2978;;;;
2021/12/12 05:52:45;;;;;;;3.9;2.3;;;;;;;-1.02;91.38867;946.3369;;;;
2021/12/12 05:55:14;;;;;;;3.1;2.2;;;;;;;-0.99;90.8291;946.3156;;;;
2021/12/12 05:57:39;;;;;;;2.9;2.3;;;;;;;-0.92;90.07617;946.4;;;;
2021/12/12 06:00:05;;;;;;;3.4;2.2;;;;;;;-0.88;89.64063;946.3411;;;;
2021/12/12 06:02:30;;;;;;;2.7;2;;;;;;;-1.08;90.12109;946.4094;;;;
2021/12/12 06:04:57;;;;;;;4.2;2;;;;;;;-1.22;91.10254;946.4792;;;;
2021/12/12 06:07:22;;;;;;;3.1;2.2;;;;;;;-1.31;91.91602;946.4475;;;;
2021/12/12 06:09:49;;;;;;;2.2;1.8;;;;;;;-1.3;91.80469;946.5219;;;;
2021/12/12 06:12:15;;;;;;;2.6;1.7;;;;;;;-1.42;92.10156;946.4669;;;;
2021/12/12 06:14:40;;;;;;;4.9;2.8;;;;;;;-1.37;91.55762;946.5435;;;;
2021/12/12 06:17:05;;;;;;;14.8;7.6;;;;;;;-1.26;90.64844;946.488;;;;
2021/12/12 06:19:34;;;;;;;8;4.9;;;;;;;-1.59;91.2666;946.5644;;;;
2021/12/12 06:21:59;;;;;;;7.7;4.2;;;;;;;-1.77;91.95801;946.6652;;;;
2021/12/12 06:24:28;;;;;;;5;3.2;;;;;;;-1.66;92.24805;946.6016;;;;
2021/12/12 06:26:53;;;;;;;4.1;2.7;;;;;;;-1.63;91.64355;946.7598;;;;
2021/12/12 06:29:18;;;;;;;3.4;2.7;;;;;;;-1.47;90.7373;946.7587;;;;
2021/12/12 06:31:44;;;;;;;3.8;3.2;;;;;;;-1.67;91.23828;946.7887;;;;
2021/12/12 06:34:09;;;;;;;4.4;2.8;;;;;;;-1.72;91.60352;946.847;;;;
2021/12/12 06:36:36;;;;;;;5.5;4;;;;;;;-1.69;91.04395;946.8367;;;;
2021/12/12 06:39:01;;;;;;;17.1;10.2;;;;;;;-1.85;91.03223;946.8633;;;;
2021/12/12 06:41:28;;;;;;;25.6;16.3;;;;;;;-1.86;91.19727;946.8722;;;;
2021/12/12 06:46:18;;;;;;;21.6;11.3;;;;;;;-2.19;91.73535;946.8998;;;;
2021/12/12 06:48:43;;;;;;;19.6;10;;;;;;;-2.17;91.94824;946.8666;;;;
2021/12/12 06:52:22;;;;;;;16.6;8.2;;;;;;;-2.11;91.60742;946.8384;;;;
2021/12/12 06:54:46;;;;;;;10.8;5.8;;;;;;;-2.23;92.24707;946.9263;;;;
2021/12/12 06:57:12;;;;;;;9.9;5.3;;;;;;;-2.13;91.86914;946.9406;;;;
2021/12/12 06:59:37;;;;;;;8.2;4.8;;;;;;;-1.96;91.05371;946.9677;;;;
2021/12/12 07:02:05;;;;;;;12.6;6.6;;;;;;;-1.79;89.65723;946.9664;;;;
2021/12/12 07:04:30;;;;;;;9.7;5.7;;;;;;;-1.9;88.81348;946.9641;;;;
2021/12/12 07:06:57;;;;;;;10.2;6.3;;;;;;;-1.81;88.99902;947.0028;;;;
2021/12/12 07:09:21;;;;;;;12.1;7.4;;;;;;;-1.9;89.23535;947.0171;;;;
2021/12/12 07:11:46;;;;;;;10.3;6.6;;;;;;;-1.98;89.44141;947.1181;;;;
2021/12/12 07:14:14;;;;;;;10.9;6.2;;;;;;;-2.06;89.82324;947.1874;;;;
2021/12/12 07:16:44;;;;;;;11.6;7.3;;;;;;;-2.07;90.41797;947.1514;;;;
2021/12/12 07:19:14;;;;;;;10.1;6;;;;;;;-2.31;90.98828;947.245;;;;
2021/12/12 07:21:40;;;;;;;7.8;5.3;;;;;;;-2.23;91.31348;947.251;;;;
2021/12/12 07:24:04;;;;;;;7.7;5.3;;;;;;;-2.21;90.81055;947.2263;;;;
2021/12/12 07:26:31;;;;;;;6.9;4.7;;;;;;;-2.48;91.92383;947.2578;;;;
2021/12/12 07:28:56;;;;;;;7.1;4.3;;;;;;;-2.43;92.23438;947.2216;;;;
2021/12/12 07:31:24;;;;;;;6.2;3.8;;;;;;;-2.41;91.88574;947.2899;;;;
2021/12/12 07:33:49;;;;;;;5.8;4;;;;;;;-2.19;91.22363;947.2592;;;;
2021/12/12 07:36:18;;;;;;;5.3;3.3;;;;;;;-1.98;90.80566;947.2789;;;;
2021/12/12 07:38:44;;;;;;;6.5;4.6;;;;;;;-1.87;90.1084;947.3158;;;;
2021/12/12 07:41:12;;;;;;;9.1;5.5;;;;;;;-1.74;89.56934;947.3728;;;;
2021/12/12 07:43:36;;;;;;;10.5;6.1;;;;;;;-1.63;88.74707;947.3705;;;;
2021/12/12 07:46:01;;;;;;;13.4;8.4;;;;;;;-1.84;89.14746;947.3994;;;;
2021/12/12 07:48:28;;;;;;;14;8.6;;;;;;;-1.99;89.99219;947.4041;;;;
2021/12/12 07:51:09;;;;;;;13.7;8;;;;;;;-2.04;89.78125;947.4584;;;;
2021/12/12 07:53:34;;;;;;;13.3;7.9;;;;;;;-1.97;88.96484;947.4678;;;;
2021/12/12 07:56:02;;;;;;;10.1;6.7;;;;;;;-2.04;89.26172;947.5372;;;;
2021/12/12 07:58:27;;;;;;;8;5.5;;;;;;;-2.15;89.79102;947.6116;;;;
2021/12/12 08:00:55;;;;;;;8.3;5.5;;;;;;;-2.33;90.30664;947.5692;;;;
2021/12/12 08:03:20;;;;;;;6.9;5.6;;;;;;;-2.49;91.51367;947.4639;;;;
2021/12/12 08:05:45;;;;;;;9.6;7.5;;;;;;;-2.15;91.14355;947.5539;;;;
2021/12/12 08:08:10;;;;;;;9.7;7.4;;;;;;;-1.06;87.48047;947.4902;;;;
2021/12/12 08:10:36;;;;;;;8.7;6.5;;;;;;;0.16;81.82715;947.5031;;;;
2021/12/12 08:13:01;;;;;;;19.5;11.3;;;;;;;0.67;78.11133;947.4669;;;;
2021/12/12 08:16:19;;;;;;;20.7;12.6;;;;;;;1.33;75.14746;947.4409;;;;
2021/12/12 08:18:44;;;;;;;24;15.3;;;;;;;2.49;71.60059;947.4023;;;;
2021/12/12 08:21:09;;;;;;;23.8;14.7;;;;;;;4.28;64.86914;947.3391;;;;
2021/12/12 08:23:34;;;;;;;20.3;12.4;;;;;;;5.42;59.94336;947.301;;;;
2021/12/12 08:26:00;;;;;;;23.6;15.7;;;;;;;6.18;56.15137;947.4659;;;;
2021/12/12 08:28:24;;;;;;;12.9;9.8;;;;;;;4.22;60.82227;947.6493;;;;
2021/12/12 08:30:52;;;;;;;16.7;11.1;;;;;;;5.39;59.27344;947.6093;;;;
2021/12/12 08:33:17;;;;;;;16.9;11.6;;;;;;;5.91;56.66895;947.5857;;;;
2021/12/12 08:35:43;;;;;;;13.1;8.7;;;;;;;5.65;57.40332;947.606;;;;
2021/12/12 08:38:09;;;;;;;10.6;7.2;;;;;;;4.49;59.16113;947.597;;;;
2021/12/12 08:40:35;;;;;;;21.1;12.6;;;;;;;1.38;71.45801;947.6495;;;;
2021/12/12 08:43:01;;;;;;;22.2;13.4;;;;;;;0.43;76.56152;947.6975;;;;
2021/12/12 08:45:25;;;;;;;15.6;10.6;;;;;;;-0.12;80.09375;947.7678;;;;
2021/12/12 08:47:53;;;;;;;16.5;11.4;;;;;;;-0.46;82.34082;947.7849;;;;
2021/12/12 08:50:18;;;;;;;19.5;13.9;;;;;;;-0.48;83.35156;947.7535;;;;
2021/12/12 08:52:46;;;;;;;25.2;17;;;;;;;-0.41;83.49805;947.7607;;;;
2021/12/12 08:55:14;;;;;;;19.8;12.9;;;;;;;-0.36;83.28613;947.728;;;;
2021/12/12 08:57:41;;;;;;;19.5;13.3;;;;;;;-0.62;84.59082;947.7322;;;;
2021/12/12 08:59:59;;;;;;;13.9;9.7;;;;;;;-0.71;84.7627;947.6994;;;;
2021/12/12 09:02:24;;;;;;;13.1;8.8;;;;;;;-0.8;86.14453;947.7271;;;;
2021/12/12 09:04:52;;;;;;;10.3;7.5;;;;;;;-0.95;86.98242;947.6803;;;;
2021/12/12 09:07:17;;;;;;;10.2;7;;;;;;;-0.89;86.9375;947.5965;;;;
2021/12/12 09:09:42;;;;;;;7.4;4.8;;;;;;;-0.99;86.79688;947.7322;;;;
2021/12/12 09:12:07;;;;;;;10.9;7.9;;;;;;;-0.69;86.90137;947.6125;;;;
2021/12/12 09:14:33;;;;;;;10.9;7;;;;;;;-0.57;85.92383;947.7322;;;;
2021/12/12 09:16:58;;;;;;;13.9;8.6;;;;;;;-0.56;85.34766;947.7228;;;;
2021/12/12 09:19:25;;;;;;;14.2;8.8;;;;;;;-0.49;85.75391;947.72;;;;
2021/12/12 09:21:51;;;;;;;12.4;8.3;;;;;;;-0.43;85.30859;947.7872;;;;
2021/12/12 09:24:13;;;;;;;9.9;6.8;;;;;;;-0.43;85.66406;947.7659;;;;
2021/12/12 09:26:39;;;;;;;9.8;5.8;;;;;;;-0.56;86.12793;947.6738;;;;
2021/12/12 09:29:04;;;;;;;10.4;5.8;;;;;;;-0.4;86.08203;947.6746;;;;
2021/12/12 09:31:30;;;;;;;15.9;6.3;;;;;;;-0.3;85.89258;947.6199;;;;
2021/12/12 09:33:55;;;;;;;9.1;5.4;;;;;;;-0.47;86.66797;947.5183;;;;
2021/12/12 09:36:20;;;;;;;10.4;7.2;;;;;;;-0.21;86.32031;947.5237;;;;
2021/12/12 09:38:45;;;;;;;9.8;6.6;;;;;;;-0.02;85.9043;947.5436;;;;
2021/12/12 09:41:11;;;;;;;9.5;5;;;;;;;0.12;85.09473;947.5726;;;;
2021/12/12 09:43:40;;;;;;;7.3;4.2;;;;;;;0.15;85.16895;947.5683;;;;
2021/12/12 09:46:06;;;;;;;11.4;5.5;;;;;;;0.26;84.91211;947.4785;;;;
2021/12/12 09:51:17;;;;;;;6.1;3.5;;;;;;;0.45;83.44434;947.5916;;;;
2021/12/12 09:53:35;;;;;;;3.7;2.1;;;;;;;0.62;81.55078;947.565;;;;
2021/12/12 09:56:00;;;;;;;1.9;1.5;;;;;;;0.71;80.31641;947.4975;;;;
2021/12/12 09:58:25;;;;;;;6.7;4.3;;;;;;;0.63;82.03027;947.4233;;;;
2021/12/12 10:00:51;;;;;;;11.3;6.4;;;;;;;0.55;82.77441;947.4155;;;;
2021/12/12 10:03:16;;;;;;;9.4;6.7;;;;;;;0.53;81.84375;947.5315;;;;
2021/12/12 10:05:41;;;;;;;5.1;3.2;;;;;;;0.61;81.87012;947.5029;;;;
2021/12/12 10:08:06;;;;;;;7.7;4.5;;;;;;;0.71;82.10352;947.4969;;;;
2021/12/12 10:10:31;;;;;;;6.7;4.2;;;;;;;0.71;81.34473;947.4734;;;;
2021/12/12 10:12:56;;;;;;;7.3;4.1;;;;;;;0.73;80.93555;947.4573;;;;
2021/12/12 10:15:21;;;;;;;6.3;4;;;;;;;0.84;81.8584;947.4419;;;;
2021/12/12 10:17:46;;;;;;;5;3.8;;;;;;;1.01;81.20117;947.4026;;;;
2021/12/12 10:20:16;;;;;;;8;4.5;;;;;;;1.21;81.5293;947.3403;;;;
2021/12/12 10:22:41;;;;;;;6.7;3.6;;;;;;;1.29;80.96387;947.3959;;;;
2021/12/12 10:25:06;;;;;;;4.4;2.7;;;;;;;1.22;79.3418;947.3964;;;;
2021/12/12 10:27:32;;;;;;;4.7;2.7;;;;;;;1.32;79.91699;947.3613;;;;
2021/12/12 10:29:57;;;;;;;3.1;2.6;;;;;;;1.36;78.37207;947.267;;;;
2021/12/12 10:32:23;;;;;;;4.9;2.8;;;;;;;1.37;79.34668;947.3542;;;;
2021/12/12 10:34:48;;;;;;;3.2;2.4;;;;;;;1.34;78.31348;947.2919;;;;
2021/12/12 10:37:13;;;;;;;5.2;2.8;;;;;;;1.3;78.57324;947.3523;;;;
2021/12/12 10:39:38;;;;;;;4.8;3.6;;;;;;;1.42;79.53418;947.3155;;;;
2021/12/12 10:42:04;;;;;;;8.8;4.7;;;;;;;1.48;78.97754;947.2589;;;;
2021/12/12 10:44:29;;;;;;;9.9;4.9;;;;;;;1.53;79.18652;947.2249;;;;
2021/12/12 10:46:54;;;;;;;8.8;5.1;;;;;;;1.65;77.8125;947.2478;;;;
2021/12/12 10:49:21;;;;;;;8.7;4.6;;;;;;;1.71;78.02441;947.1355;;;;
2021/12/12 10:51:45;;;;;;;7;4.1;;;;;;;1.65;77.92285;947.111;;;;
2021/12/12 10:54:10;;;;;;;6.4;3.8;;;;;;;1.7;77.26172;947.0787;;;;
2021/12/12 10:56:35;;;;;;;2.3;1.9;;;;;;;1.83;76.73633;947.1231;;;;
2021/12/12 10:59:04;;;;;;;2.4;1.8;;;;;;;1.97;76.66211;947.0265;;;;
2021/12/12 11:01:29;;;;;;;1.9;1.7;;;;;;;2.06;76.07422;947.1199;;;;
2021/12/12 11:03:56;;;;;;;2.4;1.8;;;;;;;2.18;75.07617;947.0974;;;;
2021/12/12 11:06:22;;;;;;;2.1;1.1;;;;;;;2.05;73.75391;947.052;;;;
2021/12/12 11:08:47;;;;;;;1;0.9;;;;;;;1.96;74.03027;947.1368;;;;
2021/12/12 11:11:12;;;;;;;1.2;1.1;;;;;;;2.18;73.81055;947.115;;;;
2021/12/12 11:13:37;;;;;;;2.5;1.6;;;;;;;2.22;74.7373;947.0769;;;;
2021/12/12 11:16:05;;;;;;;3.9;2;;;;;;;2.31;74.29199;947.1303;;;;
2021/12/12 11:18:30;;;;;;;3.9;2.9;;;;;;;2.34;75.50684;947.1232;;;;
2021/12/12 11:20:58;;;;;;;4.7;3.3;;;;;;;2.41;75.54199;947.1205;;;;
2021/12/12 11:23:22;;;;;;;4.9;2.7;;;;;;;2.4;76.20313;947.1217;;;;
2021/12/12 11:25:48;;;;;;;3.1;2.3;;;;;;;2.54;75.38477;947.0737;;;;
2021/12/12 11:28:13;;;;;;;2.5;1.6;;;;;;;2.61;73.8418;947.0734;;;;
2021/12/12 11:30:38;;;;;;;2.3;1.8;;;;;;;2.61;73.77441;946.9867;;;;
2021/12/12 11:33:04;;;;;;;4.1;1.6;;;;;;;2.63;73.89941;946.9916;;;;
2021/12/12 11:35:29;;;;;;;3.3;1.8;;;;;;;2.7;73.76563;946.9805;;;;
2021/12/12 11:37:54;;;;;;;3.3;2;;;;;;;2.57;73.17188;946.96;;;;
2021/12/12 11:40:21;;;;;;;3.8;2.2;;;;;;;2.62;73.82031;947.0328;;;;
2021/12/12 11:42:46;;;;;;;3.3;1.8;;;;;;;2.65;72.76074;947.0316;;;;
2021/12/12 11:45:11;;;;;;;2.2;1.8;;;;;;;2.78;72.25684;947.0392;;;;
2021/12/12 11:47:37;;;;;;;1.6;1.3;;;;;;;2.72;70.48438;947.0562;;;;
2021/12/12 11:50:01;;;;;;;2.8;1.5;;;;;;;3.04;71.40234;946.9791;;;;
2021/12/12 11:52:27;;;;;;;3.2;1.9;;;;;;;3.36;70.23145;946.9603;;;;
2021/12/12 11:54:52;;;;;;;4.9;2.5;;;;;;;3.6;70.0127;946.9457;;;;
2021/12/12 11:57:17;;;;;;;4;2.6;;;;;;;3.88;66.92383;946.9192;;;;
2021/12/12 11:59:42;;;;;;;4.9;2.7;;;;;;;4.42;67.08691;946.8172;;;;
2021/12/12 12:02:08;;;;;;;6.5;3.5;;;;;;;4.97;67.95117;946.7769;;;;
2021/12/12 12:04:33;;;;;;;3.9;3.1;;;;;;;5.25;66.90137;946.6721;;;;
2021/12/12 12:06:58;;;;;;;5.1;3.9;;;;;;;4.91;64.48145;946.6722;;;;
2021/12/12 12:09:23;;;;;;;5.4;3.6;;;;;;;5.15;66.67188;946.6381;;;;
2021/12/12 12:11:49;;;;;;;5.9;3.6;;;;;;;5.4;65.92188;946.5875;;;;
2021/12/12 12:14:14;;;;;;;4.4;2.9;;;;;;;4.8;65.26465;946.6512;;;;
2021/12/12 12:16:39;;;;;;;4.5;3;;;;;;;4.39;66.70898;946.5999;;;;
2021/12/12 12:19:04;;;;;;;5.3;4;;;;;;;4.53;68.53223;946.5206;;;;
2021/12/12 12:21:29;;;;;;;6.4;3.9;;;;;;;4.68;69.2998;946.5394;;;;
2021/12/12 12:24:13;;;;;;;7.1;4.3;;;;;;;4.85;67.87598;946.512;;;;
2021/12/12 12:28:45;;;;;;;7.5;5.4;;;;;;;4.87;69.12988;946.6224;;;;
2021/12/12 12:31:45;;;;;;;9.5;4.7;;;;;;;5.12;68.76465;946.655;;;;
2021/12/12 12:35:03;;;;;;;7;4.5;;;;;;;4.86;67.34766;946.6055;;;;
2021/12/12 12:37:29;;;;;;;11.3;5.2;;;;;;;4.48;70.70898;946.6453;;;;
2021/12/12 12:39:55;;;;;;;8.7;4.9;;;;;;;4.57;70.41016;946.5652;;;;
2021/12/12 12:42:21;;;;;;;5.6;3.2;;;;;;;4.34;71.66504;946.676;;;;
2021/12/12 12:44:45;;;;;;;4.5;3;;;;;;;4.15;71.57715;946.6516;;;;
2021/12/12 12:47:11;;;;;;;5.7;3.5;;;;;;;4.45;72.14551;946.6383;;;;
2021/12/12 12:49:37;;;;;;;8;4.8;;;;;;;4.53;71.18066;946.6526;;;;
2021/12/12 12:52:01;;;;;;;11.6;6.9;;;;;;;4.58;71.8418;946.6438;;;;
2021/12/12 13:00:39;;;;;;;5.7;3.8;;;;;;;4.09;68.87891;946.5731;;;;
2021/12/12 13:03:04;;;;;;;7;4;;;;;;;4.46;69.99707;946.5671;;;;
2021/12/12 13:05:35;;;;;;;8;4.4;;;;;;;4.81;69.7168;946.5433;;;;
2021/12/12 13:08:00;;;;;;;7.2;4.8;;;;;;;4.88;69.25488;946.5038;;;;
2021/12/12 13:10:25;;;;;;;8;4.5;;;;;;;5.05;69.56445;946.4846;;;;
2021/12/12 13:12:54;;;;;;;9.2;5.8;;;;;;;4.98;68.5498;946.4567;;;;
2021/12/12 13:15:23;;;;;;;10.1;6;;;;;;;4.74;70.02051;946.4216;;;;
2021/12/12 13:17:52;;;;;;;7.4;5.8;;;;;;;4.65;70.81641;946.3819;;;;
2021/12/12 13:20:18;;;;;;;10.4;6.5;;;;;;;4.52;71.76367;946.5156;;;;
2021/12/12 13:22:54;;;;;;;8.4;6.4;;;;;;;4.39;71.49414;946.4448;;;;
2021/12/12 13:25:20;;;;;;;10.8;7.2;;;;;;;4.48;73.12891;946.3787;;;;
2021/12/12 13:28:00;;;;;;;9.9;7.1;;;;;;;4.55;73.98633;946.4498;;;;
2021/12/12 13:30:25;;;;;;;9.4;7.2;;;;;;;4.48;74.36719;946.4709;;;;
2021/12/12 13:32:41;;;;;;;12.4;8.2;;;;;;;4.5;76.02539;946.4365;;;;
2021/12/12 13:35:08;;;;;;;11.7;7.3;;;;;;;4.32;77.03027;946.4572;;;;
2021/12/12 13:37:33;;;;;;;10.4;6.7;;;;;;;4.31;78.00586;946.3879;;;;
2021/12/12 13:39:58;;;;;;;9.4;5.9;;;;;;;4.5;77.18555;946.4175;;;;
2021/12/12 13:42:23;;;;;;;8.9;6.4;;;;;;;4.6;76.6084;946.4285;;;;
2021/12/12 13:44:48;;;;;;;9.9;7;;;;;;;4.53;76.24414;946.448;;;;
2021/12/12 13:47:13;;;;;;;17.7;11.8;;;;;;;4.59;75.46875;946.4113;;;;
2021/12/12 13:49:42;;;;;;;15.3;10.3;;;;;;;4.5;74.53027;946.5242;;;;
2021/12/12 13:52:06;;;;;;;12.6;8.9;;;;;;;4.17;74.10059;946.5019;;;;
2021/12/12 13:54:32;;;;;;;17.5;10.6;;;;;;;4.18;75.80176;946.5302;;;;
2021/12/12 13:56:56;;;;;;;16.3;9.2;;;;;;;4.08;74.68066;946.5829;;;;
2021/12/12 13:59:22;;;;;;;13.3;8.8;;;;;;;4.1;75.41504;946.613;;;;
2021/12/12 14:01:47;;;;;;;12.7;7.9;;;;;;;4.25;75.80176;946.6289;;;;
2021/12/12 14:04:15;;;;;;;14.3;8.4;;;;;;;4.25;74.7334;946.6733;;;;
2021/12/12 14:06:42;;;;;;;14.9;10;;;;;;;4.08;75.59375;946.6367;;;;
2021/12/12 14:09:06;;;;;;;16.6;10.6;;;;;;;4.07;76.74707;946.6209;;;;
2021/12/12 14:11:31;;;;;;;17.3;9.9;;;;;;;4.13;78.06445;946.6499;;;;
2021/12/12 14:13:57;;;;;;;12.6;8.3;;;;;;;4.08;78.5625;946.5964;;;;
2021/12/12 14:16:23;;;;;;;13.5;8.1;;;;;;;3.76;80.2334;946.5441;;;;
2021/12/12 14:18:54;;;;;;;282.1;155.4;;;;;;;3.52;81.50293;946.6412;;;;
2021/12/12 14:21:22;;;;;;;26.6;14.8;;;;;;;3.68;81.80273;946.5954;;;;
2021/12/12 14:23:47;;;;;;;19.2;11.7;;;;;;;3.79;81.69922;946.568;;;;
2021/12/12 14:26:16;;;;;;;20.6;10.3;;;;;;;3.74;81.84668;946.4748;;;;
2021/12/12 14:28:41;;;;;;;16.4;11;;;;;;;3.71;82.21191;946.5212;;;;
2021/12/12 14:31:06;;;;;;;19.7;13.9;;;;;;;3.72;81.73242;946.4621;;;;
2021/12/12 14:33:31;;;;;;;29.1;17.4;;;;;;;3.71;82.26855;946.4197;;;;
2021/12/12 14:35:58;;;;;;;27.5;15.2;;;;;;;3.65;82.66211;946.494;;;;
2021/12/12 14:38:22;;;;;;;23;14.3;;;;;;;3.72;82.58496;946.4597;;;;
2021/12/12 14:40:47;;;;;;;31;17.5;;;;;;;3.67;83.01465;946.5267;;;;
2021/12/12 14:43:14;;;;;;;27.3;15.1;;;;;;;3.51;83.11914;946.514;;;;
2021/12/12 14:45:38;;;;;;;30.9;19.7;;;;;;;3.27;83.21582;946.4936;;;;
2021/12/12 14:48:04;;;;;;;39;22.7;;;;;;;3.36;83.51563;946.5251;;;;
2021/12/12 14:50:28;;;;;;;35.4;21;;;;;;;3.45;83.52246;946.5344;;;;
2021/12/12 14:52:53;;;;;;;48.2;26.2;;;;;;;3.48;83.22461;946.592;;;;
2021/12/12 14:55:19;;;;;;;44.6;25.5;;;;;;;3.53;83.61523;946.6266;;;;
2021/12/12 14:57:44;;;;;;;38.4;22.2;;;;;;;3.45;84.39844;946.593;;;;
2021/12/12 15:02:42;;;;;;;32.3;17.7;;;;;;;3.18;87.44238;946.6646;;;;
2021/12/12 15:05:24;;;;;;;30;16.1;;;;;;;3.26;87.32422;946.6517;;;;
2021/12/12 15:07:49;;;;;;;20.4;11.4;;;;;;;3.15;88.05176;946.671;;;;
2021/12/12 15:10:14;;;;;;;16.5;10;;;;;;;3.16;88.53613;946.6099;;;;
2021/12/12 15:12:39;;;;;;;17.9;10.6;;;;;;;3.09;89.07324;946.7094;;;;
2021/12/12 15:15:07;;;;;;;15.6;9.2;;;;;;;3.19;88.64551;946.7428;;;;
2021/12/12 15:17:33;;;;;;;13;7.8;;;;;;;3.2;88.35547;946.7717;;;;
2021/12/12 15:19:59;;;;;;;68.2;37.7;;;;;;;3.22;88.37012;946.8058;;;;
2021/12/12 15:22:24;;;;;;;24.4;16.9;;;;;;;3.22;88.01074;946.8108;;;;
2021/12/12 15:24:49;;;;;;;20.5;12.4;;;;;;;3.05;88.7959;946.7745;;;;
2021/12/12 15:27:45;;;;;;;15;10.6;;;;;;;3.01;88.85449;946.8557;;;;
2021/12/12 15:30:10;;;;;;;31.5;17.7;;;;;;;3.15;88.29004;946.9189;;;;
2021/12/12 15:32:35;;;;;;;22.2;13.5;;;;;;;3.25;87.88184;946.8939;;;;
2021/12/12 15:35:00;;;;;;;29.4;17.8;;;;;;;3.28;87.83301;946.9728;;;;
2021/12/12 15:37:25;;;;;;;36.6;22.7;;;;;;;3.28;87.38379;947.0289;;;;
2021/12/12 15:39:51;;;;;;;121.5;63;;;;;;;3.31;87.25488;947.0578;;;;
2021/12/12 15:42:16;;;;;;;38.1;23.7;;;;;;;3.28;87.21387;947.0797;;;;
2021/12/12 15:44:57;;;;;;;36.3;22.7;;;;;;;3.29;87.16113;947.1724;;;;
2021/12/12 15:47:39;;;;;;;29.1;19.2;;;;;;;3.27;87.30371;947.1855;;;;
2021/12/12 15:50:04;;;;;;;28.2;18.1;;;;;;;3.23;87.55078;947.1415;;;;
2021/12/12 15:52:30;;;;;;;23.2;15.6;;;;;;;3.26;87.53711;947.2514;;;;
2021/12/12 15:54:54;;;;;;;20.1;14.2;;;;;;;3.23;88.02441;947.2354;;;;
2021/12/12 15:57:20;;;;;;;17.6;11.9;;;;;;;3.07;88.97754;947.2609;;;;
2021/12/12 15:59:46;;;;;;;21.3;14.3;;;;;;;2.97;89.48633;947.209;;;;
2021/12/12 16:04:36;;;;;;;25.5;16.7;;;;;;;2.99;89.26563;947.2495;;;;
2021/12/12 16:07:01;;;;;;;17.3;12.8;;;;;;;2.96;89.41699;947.185;;;;
2021/12/12 16:09:26;;;;;;;17.2;10.9;;;;;;;2.85;89.95117;947.2308;;;;